Gustavus, Ohio
Current Conditions -  °F | °C
As of 4:51 PM on Monday 22 Dec 2014 (Local Time) from KYNG Reporting Station
Broken Clouds Broken Clouds  
Wind Chill: 30°   Ceiling: 5000
Heat Index: 36°   Visibility: 8mi
Dew Point: 29°   Wind: 8mph
Humidity: 76%   Direction: 100°E
Pressure: 30"   Gusts: NA
Location:  41.4314°N, 80.6629°W
Report Text: KYNG 222151Z 10007KT 8SM BKN050 BKN250 02/M02 A3000 RMK AO2 SLP172 T00221017
Loading
Personal Weather Stations






























Interactive Weather Map New forecast layout! Learn more

10-Day Weather Forecast

Advertisements
Track Severe Weather on mobile